sensor_id;sensor_type;location;lat;lon;timestamp;P1;durP1;ratioP1;P2;durP2;ratioP2
15814;SDS011;8008;50.024;8.172;2023-02-01T04:03:00;7.13;;;5.10;;
15814;SDS011;8008;50.024;8.172;2023-02-01T04:05:30;7.87;;;5.00;;
15814;SDS011;8008;50.024;8.172;2023-02-01T04:08:02;7.00;;;5.40;;
15814;SDS011;8008;50.024;8.172;2023-02-01T04:10:31;10.27;;;6.20;;
15814;SDS011;8008;50.024;8.172;2023-02-01T04:12:59;11.50;;;6.40;;
15814;SDS011;8008;50.024;8.172;2023-02-01T04:15:27;8.13;;;5.73;;
15814;SDS011;8008;50.024;8.172;2023-02-01T04:17:55;10.57;;;6.80;;
15814;SDS011;8008;50.024;8.172;2023-02-01T04:20:24;8.03;;;5.40;;
15814;SDS011;8008;50.024;8.172;2023-02-01T04:22:52;10.33;;;6.40;;
15814;SDS011;8008;50.024;8.172;2023-02-01T04:25:20;9.63;;;6.63;;
15814;SDS011;8008;50.024;8.172;2023-02-01T04:27:48;14.40;;;9.10;;
15814;SDS011;8008;50.024;8.172;2023-02-01T04:30:16;6.27;;;4.30;;
15814;SDS011;8008;50.024;8.172;2023-02-01T04:32:44;6.80;;;4.27;;
15814;SDS011;8008;50.024;8.172;2023-02-01T04:35:12;8.63;;;3.73;;
15814;SDS011;8008;50.024;8.172;2023-02-01T04:37:42;6.73;;;3.57;;
15814;SDS011;8008;50.024;8.172;2023-02-01T04:40:10;8.37;;;4.50;;
15814;SDS011;8008;50.024;8.172;2023-02-01T04:42:38;8.03;;;3.47;;
15814;SDS011;8008;50.024;8.172;2023-02-01T04:45:07;9.57;;;3.17;;
15814;SDS011;8008;50.024;8.172;2023-02-01T04:47:35;7.07;;;3.07;;
15814;SDS011;8008;50.024;8.172;2023-02-01T04:50:03;7.60;;;3.40;;
15814;SDS011;8008;50.024;8.172;2023-02-01T04:52:33;10.53;;;3.10;;
15814;SDS011;8008;50.024;8.172;2023-02-01T04:55:02;5.90;;;2.90;;
15814;SDS011;8008;50.024;8.172;2023-02-01T04:57:30;4.43;;;2.50;;
15814;SDS011;8008;50.024;8.172;2023-02-01T04:59:58;7.30;;;2.90;;
15814;SDS011;8008;50.024;8.172;2023-02-01T05:02:26;7.93;;;3.00;;
15814;SDS011;8008;50.024;8.172;2023-02-01T05:04:54;4.77;;;2.60;;
15814;SDS011;8008;50.024;8.172;2023-02-01T05:07:22;10.70;;;2.90;;
15814;SDS011;8008;50.024;8.172;2023-02-01T05:09:50;10.50;;;2.67;;
15814;SDS011;8008;50.024;8.172;2023-02-01T05:12:19;7.30;;;2.83;;
15814;SDS011;8008;50.024;8.172;2023-02-01T05:15:05;12.10;;;3.27;;
15814;SDS011;8008;50.024;8.172;2023-02-01T05:17:34;9.30;;;3.00;;
15814;SDS011;8008;50.024;8.172;2023-02-01T05:20:02;7.23;;;2.90;;
15814;SDS011;8008;50.024;8.172;2023-02-01T05:22:30;6.93;;;2.60;;
15814;SDS011;8008;50.024;8.172;2023-02-01T05:24:58;11.47;;;3.30;;
15814;SDS011;8008;50.024;8.172;2023-02-01T05:27:27;8.23;;;3.00;;
15814;SDS011;8008;50.024;8.172;2023-02-01T05:29:56;9.43;;;3.00;;
15814;SDS011;8008;50.024;8.172;2023-02-01T05:32:24;8.40;;;3.40;;
15814;SDS011;8008;50.024;8.172;2023-02-01T05:34:52;9.47;;;3.60;;
15814;SDS011;8008;50.024;8.172;2023-02-01T05:37:20;15.43;;;5.00;;
15814;SDS011;8008;50.024;8.172;2023-02-01T05:39:47;9.70;;;3.03;;
15814;SDS011;8008;50.024;8.172;2023-02-01T05:42:15;6.40;;;3.00;;
15814;SDS011;8008;50.024;8.172;2023-02-01T05:44:45;5.10;;;2.60;;
15814;SDS011;8008;50.024;8.172;2023-02-01T05:47:12;7.73;;;2.80;;
15814;SDS011;8008;50.024;8.172;2023-02-01T05:49:40;11.47;;;2.80;;
15814;SDS011;8008;50.024;8.172;2023-02-01T05:52:08;6.37;;;2.50;;
15814;SDS011;8008;50.024;8.172;2023-02-01T05:54:36;4.83;;;2.27;;
15814;SDS011;8008;50.024;8.172;2023-02-01T05:57:04;6.17;;;2.43;;
15814;SDS011;8008;50.024;8.172;2023-02-01T05:59:32;9.20;;;3.00;;
15814;SDS011;8008;50.024;8.172;2023-02-01T06:02:01;7.10;;;2.60;;
15814;SDS011;8008;50.024;8.172;2023-02-01T06:04:29;6.53;;;2.47;;
15814;SDS011;8008;50.024;8.172;2023-02-01T06:06:57;6.57;;;2.50;;
15814;SDS011;8008;50.024;8.172;2023-02-01T06:09:25;7.40;;;2.60;;
15814;SDS011;8008;50.024;8.172;2023-02-01T06:11:54;7.70;;;2.60;;
15814;SDS011;8008;50.024;8.172;2023-02-01T06:14:22;4.37;;;2.30;;
15814;SDS011;8008;50.024;8.172;2023-02-01T06:16:50;7.30;;;3.27;;
15814;SDS011;8008;50.024;8.172;2023-02-01T06:19:19;10.37;;;2.73;;
15814;SDS011;8008;50.024;8.172;2023-02-01T06:21:47;8.13;;;3.00;;
15814;SDS011;8008;50.024;8.172;2023-02-01T06:24:16;11.17;;;2.80;;
15814;SDS011;8008;50.024;8.172;2023-02-01T06:26:43;6.33;;;2.27;;
15814;SDS011;8008;50.024;8.172;2023-02-01T06:29:11;6.87;;;2.43;;
15814;SDS011;8008;50.024;8.172;2023-02-01T06:31:40;5.63;;;2.40;;
15814;SDS011;8008;50.024;8.172;2023-02-01T06:34:08;5.13;;;2.57;;
15814;SDS011;8008;50.024;8.172;2023-02-01T06:36:38;7.40;;;2.67;;
15814;SDS011;8008;50.024;8.172;2023-02-01T06:39:06;7.17;;;2.37;;
15814;SDS011;8008;50.024;8.172;2023-02-01T06:41:34;9.13;;;2.97;;
15814;SDS011;8008;50.024;8.172;2023-02-01T06:44:01;8.17;;;2.57;;
15814;SDS011;8008;50.024;8.172;2023-02-01T06:46:29;7.80;;;2.50;;
15814;SDS011;8008;50.024;8.172;2023-02-01T06:48:57;6.20;;;2.80;;
15814;SDS011;8008;50.024;8.172;2023-02-01T06:51:26;9.93;;;2.73;;
15814;SDS011;8008;50.024;8.172;2023-02-01T06:53:56;8.40;;;2.70;;
15814;SDS011;8008;50.024;8.172;2023-02-01T06:56:24;9.00;;;2.87;;
15814;SDS011;8008;50.024;8.172;2023-02-01T06:58:52;6.53;;;2.57;;
15814;SDS011;8008;50.024;8.172;2023-02-01T07:01:20;11.33;;;4.60;;
15814;SDS011;8008;50.024;8.172;2023-02-01T07:03:48;10.73;;;4.47;;
15814;SDS011;8008;50.024;8.172;2023-02-01T07:06:17;8.97;;;4.40;;
15814;SDS011;8008;50.024;8.172;2023-02-01T07:08:45;7.27;;;3.87;;
15814;SDS011;8008;50.024;8.172;2023-02-01T07:11:15;10.73;;;4.40;;
15814;SDS011;8008;50.024;8.172;2023-02-01T07:13:44;5.10;;;2.60;;
15814;SDS011;8008;50.024;8.172;2023-02-01T07:16:13;8.97;;;2.50;;
15814;SDS011;8008;50.024;8.172;2023-02-01T07:18:42;8.70;;;2.50;;
15814;SDS011;8008;50.024;8.172;2023-02-01T07:21:11;9.30;;;2.70;;
15814;SDS011;8008;50.024;8.172;2023-02-01T07:23:39;8.47;;;2.90;;
15814;SDS011;8008;50.024;8.172;2023-02-01T07:26:09;7.27;;;2.80;;
15814;SDS011;8008;50.024;8.172;2023-02-01T07:28:40;6.27;;;2.60;;
15814;SDS011;8008;50.024;8.172;2023-02-01T07:31:09;8.13;;;2.67;;
15814;SDS011;8008;50.024;8.172;2023-02-01T07:33:38;9.93;;;3.20;;
15814;SDS011;8008;50.024;8.172;2023-02-01T07:36:07;10.70;;;2.67;;
15814;SDS011;8008;50.024;8.172;2023-02-01T07:38:38;10.30;;;3.20;;
15814;SDS011;8008;50.024;8.172;2023-02-01T07:41:06;10.60;;;3.27;;
15814;SDS011;8008;50.024;8.172;2023-02-01T07:43:34;9.67;;;2.80;;
15814;SDS011;8008;50.024;8.172;2023-02-01T07:46:04;12.00;;;3.40;;
15814;SDS011;8008;50.024;8.172;2023-02-01T07:48:32;10.43;;;3.60;;
15814;SDS011;8008;50.024;8.172;2023-02-01T07:51:01;9.90;;;4.00;;
15814;SDS011;8008;50.024;8.172;2023-02-01T07:53:31;9.03;;;3.70;;
15814;SDS011;8008;50.024;8.172;2023-02-01T07:56:00;9.80;;;2.97;;
15814;SDS011;8008;50.024;8.172;2023-02-01T07:58:29;9.03;;;2.57;;
15814;SDS011;8008;50.024;8.172;2023-02-01T08:00:57;6.23;;;2.50;;
15814;SDS011;8008;50.024;8.172;2023-02-01T08:03:44;10.77;;;3.13;;
15814;SDS011;8008;50.024;8.172;2023-02-01T08:06:13;11.40;;;3.10;;
15814;SDS011;8008;50.024;8.172;2023-02-01T08:08:41;12.03;;;3.03;;
15814;SDS011;8008;50.024;8.172;2023-02-01T08:11:11;9.90;;;2.93;;
15814;SDS011;8008;50.024;8.172;2023-02-01T08:13:39;14.87;;;3.53;;
15814;SDS011;8008;50.024;8.172;2023-02-01T08:16:07;13.70;;;4.60;;
15814;SDS011;8008;50.024;8.172;2023-02-01T08:18:37;11.63;;;3.80;;
15814;SDS011;8008;50.024;8.172;2023-02-01T08:21:08;9.40;;;3.20;;
15814;SDS011;8008;50.024;8.172;2023-02-01T08:23:37;11.30;;;3.60;;
15814;SDS011;8008;50.024;8.172;2023-02-01T08:26:07;10.40;;;3.00;;
15814;SDS011;8008;50.024;8.172;2023-02-01T08:28:35;7.43;;;2.47;;
15814;SDS011;8008;50.024;8.172;2023-02-01T08:31:04;9.73;;;2.80;;
15814;SDS011;8008;50.024;8.172;2023-02-01T08:33:33;10.83;;;2.87;;
15814;SDS011;8008;50.024;8.172;2023-02-01T08:36:02;5.83;;;2.47;;
15814;SDS011;8008;50.024;8.172;2023-02-01T08:38:34;9.70;;;2.97;;
15814;SDS011;8008;50.024;8.172;2023-02-01T08:41:06;10.07;;;2.90;;
15814;SDS011;8008;50.024;8.172;2023-02-01T08:43:34;9.07;;;2.60;;
15814;SDS011;8008;50.024;8.172;2023-02-01T08:46:03;11.70;;;3.43;;
15814;SDS011;8008;50.024;8.172;2023-02-01T08:48:33;12.67;;;3.03;;
15814;SDS011;8008;50.024;8.172;2023-02-01T08:51:02;10.17;;;2.70;;
15814;SDS011;8008;50.024;8.172;2023-02-01T08:53:32;9.00;;;2.47;;
15814;SDS011;8008;50.024;8.172;2023-02-01T08:56:00;11.00;;;2.73;;
15814;SDS011;8008;50.024;8.172;2023-02-01T08:58:28;10.47;;;2.50;;
15814;SDS011;8008;50.024;8.172;2023-02-01T09:00:56;14.37;;;2.97;;
15814;SDS011;8008;50.024;8.172;2023-02-01T09:03:24;11.43;;;2.57;;
15814;SDS011;8008;50.024;8.172;2023-02-01T09:05:52;8.73;;;2.40;;
15814;SDS011;8008;50.024;8.172;2023-02-01T09:08:26;9.57;;;2.60;;
15814;SDS011;8008;50.024;8.172;2023-02-01T09:10:59;9.27;;;2.77;;
15814;SDS011;8008;50.024;8.172;2023-02-01T09:13:29;10.77;;;2.67;;
15814;SDS011;8008;50.024;8.172;2023-02-01T09:15:57;9.13;;;2.50;;
15814;SDS011;8008;50.024;8.172;2023-02-01T09:18:26;10.70;;;2.67;;
15814;SDS011;8008;50.024;8.172;2023-02-01T09:20:54;9.30;;;2.43;;
15814;SDS011;8008;50.024;8.172;2023-02-01T09:23:22;11.77;;;2.60;;
15814;SDS011;8008;50.024;8.172;2023-02-01T09:25:50;7.97;;;2.63;;
15814;SDS011;8008;50.024;8.172;2023-02-01T09:28:19;9.03;;;2.43;;
15814;SDS011;8008;50.024;8.172;2023-02-01T09:30:47;10.00;;;2.30;;
15814;SDS011;8008;50.024;8.172;2023-02-01T09:33:15;8.57;;;2.07;;
15814;SDS011;8008;50.024;8.172;2023-02-01T09:35:43;5.97;;;2.40;;
15814;SDS011;8008;50.024;8.172;2023-02-01T09:38:11;7.10;;;2.37;;
15814;SDS011;8008;50.024;8.172;2023-02-01T09:40:39;10.60;;;2.30;;
15814;SDS011;8008;50.024;8.172;2023-02-01T09:43:18;9.13;;;2.53;;
15814;SDS011;8008;50.024;8.172;2023-02-01T09:45:55;10.37;;;2.30;;
15814;SDS011;8008;50.024;8.172;2023-02-01T09:48:32;12.30;;;3.20;;
15814;SDS011;8008;50.024;8.172;2023-02-01T09:51:06;18.40;;;6.43;;
15814;SDS011;8008;50.024;8.172;2023-02-01T09:53:41;14.03;;;5.30;;
15814;SDS011;8008;50.024;8.172;2023-02-01T09:56:12;19.47;;;6.23;;
15814;SDS011;8008;50.024;8.172;2023-02-01T09:58:44;16.83;;;6.33;;
15814;SDS011;8008;50.024;8.172;2023-02-01T10:01:18;16.83;;;4.70;;
15814;SDS011;8008;50.024;8.172;2023-02-01T10:03:48;23.17;;;6.87;;
15814;SDS011;8008;50.024;8.172;2023-02-01T10:06:24;17.87;;;6.00;;
15814;SDS011;8008;50.024;8.172;2023-02-01T10:12:16;19.20;;;3.83;;
15814;SDS011;8008;50.024;8.172;2023-02-01T10:15:05;15.03;;;4.60;;
15814;SDS011;8008;50.024;8.172;2023-02-01T10:17:50;12.90;;;3.47;;
15814;SDS011;8008;50.024;8.172;2023-02-01T10:20:26;14.07;;;5.23;;
15814;SDS011;8008;50.024;8.172;2023-02-01T10:23:08;10.27;;;4.17;;
15814;SDS011;8008;50.024;8.172;2023-02-01T10:26:00;8.23;;;2.50;;
15814;SDS011;8008;50.024;8.172;2023-02-01T10:28:32;10.57;;;3.33;;
15814;SDS011;8008;50.024;8.172;2023-02-01T10:31:05;9.70;;;3.70;;
15814;SDS011;8008;50.024;8.172;2023-02-01T10:33:37;8.60;;;2.93;;
15814;SDS011;8008;50.024;8.172;2023-02-01T10:36:12;8.93;;;2.43;;
15814;SDS011;8008;50.024;8.172;2023-02-01T10:38:44;10.37;;;2.40;;
15814;SDS011;8008;50.024;8.172;2023-02-01T10:41:13;10.27;;;3.80;;
15814;SDS011;8008;50.024;8.172;2023-02-01T10:43:44;10.03;;;2.50;;
15814;SDS011;8008;50.024;8.172;2023-02-01T10:46:17;9.03;;;3.07;;
15814;SDS011;8008;50.024;8.172;2023-02-01T10:48:45;8.23;;;2.40;;
15814;SDS011;8008;50.024;8.172;2023-02-01T10:51:14;8.03;;;2.50;;
15814;SDS011;8008;50.024;8.172;2023-02-01T10:53:48;9.03;;;2.80;;
15814;SDS011;8008;50.024;8.172;2023-02-01T10:56:22;9.70;;;3.03;;
15814;SDS011;8008;50.024;8.172;2023-02-01T10:58:51;12.13;;;2.60;;
15814;SDS011;8008;50.024;8.172;2023-02-01T11:01:28;10.83;;;2.53;;
15814;SDS011;8008;50.024;8.172;2023-02-01T11:04:00;6.80;;;2.17;;
15814;SDS011;8008;50.024;8.172;2023-02-01T11:06:30;11.53;;;2.77;;
15814;SDS011;8008;50.024;8.172;2023-02-01T11:09:00;7.53;;;2.50;;
15814;SDS011;8008;50.024;8.172;2023-02-01T11:11:52;12.97;;;2.47;;
15814;SDS011;8008;50.024;8.172;2023-02-01T11:14:26;10.13;;;2.33;;
15814;SDS011;8008;50.024;8.172;2023-02-01T11:17:02;11.07;;;3.30;;
15814;SDS011;8008;50.024;8.172;2023-02-01T11:19:45;13.03;;;3.27;;
15814;SDS011;8008;50.024;8.172;2023-02-01T11:22:13;13.30;;;3.20;;
15814;SDS011;8008;50.024;8.172;2023-02-01T11:24:44;10.80;;;3.17;;
15814;SDS011;8008;50.024;8.172;2023-02-01T11:27:14;13.33;;;3.37;;
15814;SDS011;8008;50.024;8.172;2023-02-01T11:29:54;9.67;;;2.33;;
15814;SDS011;8008;50.024;8.172;2023-02-01T11:32:26;12.80;;;3.50;;
15814;SDS011;8008;50.024;8.172;2023-02-01T11:34:55;9.73;;;3.03;;
15814;SDS011;8008;50.024;8.172;2023-02-01T11:37:28;15.17;;;3.80;;
15814;SDS011;8008;50.024;8.172;2023-02-01T11:39:58;11.13;;;3.47;;
15814;SDS011;8008;50.024;8.172;2023-02-01T11:42:28;8.97;;;2.40;;
15814;SDS011;8008;50.024;8.172;2023-02-01T11:45:13;9.80;;;2.20;;
15814;SDS011;8008;50.024;8.172;2023-02-01T11:47:46;11.63;;;2.50;;
15814;SDS011;8008;50.024;8.172;2023-02-01T11:50:19;12.83;;;2.50;;
15814;SDS011;8008;50.024;8.172;2023-02-01T11:52:56;11.87;;;2.30;;
15814;SDS011;8008;50.024;8.172;2023-02-01T11:55:38;7.60;;;2.40;;
15814;SDS011;8008;50.024;8.172;2023-02-01T11:58:20;11.30;;;2.47;;
15814;SDS011;8008;50.024;8.172;2023-02-01T12:01:03;9.50;;;2.37;;
15814;SDS011;8008;50.024;8.172;2023-02-01T12:03:49;10.53;;;2.33;;
15814;SDS011;8008;50.024;8.172;2023-02-01T12:06:42;10.70;;;2.30;;
15814;SDS011;8008;50.024;8.172;2023-02-01T12:09:25;7.07;;;2.27;;
15814;SDS011;8008;50.024;8.172;2023-02-01T12:12:06;11.27;;;2.20;;
15814;SDS011;8008;50.024;8.172;2023-02-01T12:14:46;9.03;;;2.17;;
15814;SDS011;8008;50.024;8.172;2023-02-01T12:17:35;8.53;;;2.10;;
15814;SDS011;8008;50.024;8.172;2023-02-01T12:20:38;9.13;;;2.40;;
15814;SDS011;8008;50.024;8.172;2023-02-01T12:23:30;8.50;;;2.30;;
15814;SDS011;8008;50.024;8.172;2023-02-01T12:26:13;10.50;;;2.07;;
15814;SDS011;8008;50.024;8.172;2023-02-01T12:29:03;9.47;;;2.50;;
15814;SDS011;8008;50.024;8.172;2023-02-01T12:31:45;10.43;;;2.40;;
15814;SDS011;8008;50.024;8.172;2023-02-01T12:34:28;9.67;;;2.40;;
15814;SDS011;8008;50.024;8.172;2023-02-01T12:37:17;9.17;;;2.13;;
15814;SDS011;8008;50.024;8.172;2023-02-01T12:39:57;7.57;;;2.17;;
15814;SDS011;8008;50.024;8.172;2023-02-01T12:42:31;8.97;;;2.47;;
15814;SDS011;8008;50.024;8.172;2023-02-01T12:45:06;9.60;;;2.33;;
15814;SDS011;8008;50.024;8.172;2023-02-01T12:47:41;11.70;;;2.00;;
15814;SDS011;8008;50.024;8.172;2023-02-01T12:50:14;12.83;;;2.10;;
15814;SDS011;8008;50.024;8.172;2023-02-01T12:52:50;8.73;;;2.00;;
15814;SDS011;8008;50.024;8.172;2023-02-01T12:55:20;9.20;;;2.37;;
15814;SDS011;8008;50.024;8.172;2023-02-01T12:57:51;7.87;;;2.10;;
15814;SDS011;8008;50.024;8.172;2023-02-01T13:00:23;12.40;;;2.70;;
15814;SDS011;8008;50.024;8.172;2023-02-01T13:02:59;9.40;;;1.90;;
15814;SDS011;8008;50.024;8.172;2023-02-01T13:05:38;13.20;;;2.30;;
15814;SDS011;8008;50.024;8.172;2023-02-01T13:08:16;9.03;;;2.10;;
15814;SDS011;8008;50.024;8.172;2023-02-01T13:10:50;6.73;;;2.40;;
15814;SDS011;8008;50.024;8.172;2023-02-01T13:13:25;11.27;;;2.60;;
15814;SDS011;8008;50.024;8.172;2023-02-01T13:15:59;9.00;;;2.20;;
15814;SDS011;8008;50.024;8.172;2023-02-01T13:18:34;10.77;;;2.20;;
15814;SDS011;8008;50.024;8.172;2023-02-01T13:21:06;10.30;;;2.10;;
15814;SDS011;8008;50.024;8.172;2023-02-01T13:23:38;7.47;;;1.83;;
15814;SDS011;8008;50.024;8.172;2023-02-01T13:26:08;9.70;;;2.00;;
15814;SDS011;8008;50.024;8.172;2023-02-01T13:28:36;7.33;;;2.30;;
15814;SDS011;8008;50.024;8.172;2023-02-01T13:31:25;7.07;;;2.20;;
15814;SDS011;8008;50.024;8.172;2023-02-01T13:34:08;8.67;;;2.23;;
15814;SDS011;8008;50.024;8.172;2023-02-01T13:37:14;8.97;;;2.43;;
15814;SDS011;8008;50.024;8.172;2023-02-01T13:39:59;8.40;;;1.97;;
15814;SDS011;8008;50.024;8.172;2023-02-01T13:42:41;9.13;;;1.97;;
15814;SDS011;8008;50.024;8.172;2023-02-01T13:45:14;7.50;;;2.20;;
15814;SDS011;8008;50.024;8.172;2023-02-01T13:47:45;7.77;;;1.90;;
15814;SDS011;8008;50.024;8.172;2023-02-01T13:50:21;8.43;;;1.77;;
15814;SDS011;8008;50.024;8.172;2023-02-01T13:52:52;7.05;;;1.85;;
15814;SDS011;8008;50.024;8.172;2023-02-01T13:55:28;8.33;;;1.80;;
15814;SDS011;8008;50.024;8.172;2023-02-01T13:58:03;8.17;;;1.90;;
15814;SDS011;8008;50.024;8.172;2023-02-01T14:00:37;7.43;;;1.73;;
15814;SDS011;8008;50.024;8.172;2023-02-01T14:03:10;5.10;;;1.47;;
15814;SDS011;8008;50.024;8.172;2023-02-01T14:09:16;4.77;;;1.60;;
15814;SDS011;8008;50.024;8.172;2023-02-01T14:17:48;5.80;;;1.97;;
15814;SDS011;8008;50.024;8.172;2023-02-01T14:23:15;5.07;;;1.63;;
15814;SDS011;8008;50.024;8.172;2023-02-01T14:26:01;9.23;;;1.97;;
15814;SDS011;8008;50.024;8.172;2023-02-01T14:28:50;8.90;;;1.97;;
15814;SDS011;8008;50.024;8.172;2023-02-01T14:34:21;7.07;;;1.90;;
15814;SDS011;8008;50.024;8.172;2023-02-01T14:36:58;6.73;;;1.70;;
15814;SDS011;8008;50.024;8.172;2023-02-01T14:39:29;5.63;;;1.70;;
15814;SDS011;8008;50.024;8.172;2023-02-01T14:42:02;8.57;;;1.80;;
15814;SDS011;8008;50.024;8.172;2023-02-01T14:44:41;5.73;;;1.90;;
15814;SDS011;8008;50.024;8.172;2023-02-01T14:47:27;6.77;;;2.43;;
15814;SDS011;8008;50.024;8.172;2023-02-01T14:52:58;5.47;;;1.75;;
15814;SDS011;8008;50.024;8.172;2023-02-01T14:55:37;8.02;;;2.00;;
15814;SDS011;8008;50.024;8.172;2023-02-01T14:58:12;6.60;;;2.00;;
15814;SDS011;8008;50.024;8.172;2023-02-01T15:00:50;6.47;;;1.47;;
15814;SDS011;8008;50.024;8.172;2023-02-01T15:03:25;6.00;;;1.90;;
15814;SDS011;8008;50.024;8.172;2023-02-01T15:06:12;8.13;;;2.20;;
15814;SDS011;8008;50.024;8.172;2023-02-01T15:08:47;11.23;;;2.50;;
15814;SDS011;8008;50.024;8.172;2023-02-01T15:11:16;8.03;;;2.50;;
15814;SDS011;8008;50.024;8.172;2023-02-01T15:13:47;8.40;;;2.03;;
15814;SDS011;8008;50.024;8.172;2023-02-01T15:16:19;6.67;;;1.70;;
15814;SDS011;8008;50.024;8.172;2023-02-01T15:18:49;5.80;;;1.60;;
15814;SDS011;8008;50.024;8.172;2023-02-01T15:21:18;6.93;;;1.80;;
15814;SDS011;8008;50.024;8.172;2023-02-01T15:24:09;8.53;;;1.80;;
15814;SDS011;8008;50.024;8.172;2023-02-01T15:26:38;8.17;;;1.70;;
15814;SDS011;8008;50.024;8.172;2023-02-01T15:29:09;8.05;;;2.40;;
15814;SDS011;8008;50.024;8.172;2023-02-01T15:31:39;6.07;;;1.90;;
15814;SDS011;8008;50.024;8.172;2023-02-01T15:34:10;8.68;;;2.08;;
15814;SDS011;8008;50.024;8.172;2023-02-01T15:36:38;8.83;;;2.17;;
15814;SDS011;8008;50.024;8.172;2023-02-01T15:39:19;6.63;;;1.90;;
15814;SDS011;8008;50.024;8.172;2023-02-01T15:41:53;7.13;;;1.77;;
15814;SDS011;8008;50.024;8.172;2023-02-01T15:44:33;7.53;;;2.07;;
15814;SDS011;8008;50.024;8.172;2023-02-01T15:47:08;7.43;;;2.10;;
15814;SDS011;8008;50.024;8.172;2023-02-01T15:49:42;5.33;;;1.70;;
15814;SDS011;8008;50.024;8.172;2023-02-01T15:52:16;8.93;;;3.03;;
15814;SDS011;8008;50.024;8.172;2023-02-01T15:54:49;12.60;;;2.50;;
15814;SDS011;8008;50.024;8.172;2023-02-01T15:57:20;8.57;;;2.40;;
15814;SDS011;8008;50.024;8.172;2023-02-01T15:59:56;5.53;;;1.83;;
15814;SDS011;8008;50.024;8.172;2023-02-01T16:02:37;6.67;;;1.83;;
15814;SDS011;8008;50.024;8.172;2023-02-01T16:05:28;8.67;;;1.90;;
15814;SDS011;8008;50.024;8.172;2023-02-01T16:08:00;7.45;;;1.70;;
15814;SDS011;8008;50.024;8.172;2023-02-01T16:10:38;7.43;;;1.70;;
15814;SDS011;8008;50.024;8.172;2023-02-01T16:13:06;6.37;;;1.70;;
15814;SDS011;8008;50.024;8.172;2023-02-01T16:15:34;11.10;;;2.30;;
15814;SDS011;8008;50.024;8.172;2023-02-01T16:18:03;6.70;;;1.60;;
15814;SDS011;8008;50.024;8.172;2023-02-01T16:20:33;9.80;;;1.60;;
15814;SDS011;8008;50.024;8.172;2023-02-01T16:23:01;6.83;;;2.03;;
15814;SDS011;8008;50.024;8.172;2023-02-01T16:25:29;7.67;;;1.57;;
15814;SDS011;8008;50.024;8.172;2023-02-01T16:27:57;8.30;;;2.07;;
15814;SDS011;8008;50.024;8.172;2023-02-01T16:30:25;4.27;;;1.70;;
15814;SDS011;8008;50.024;8.172;2023-02-01T16:32:54;5.53;;;1.83;;
15814;SDS011;8008;50.024;8.172;2023-02-01T16:35:29;7.17;;;1.67;;
15814;SDS011;8008;50.024;8.172;2023-02-01T16:38:03;8.17;;;1.67;;
15814;SDS011;8008;50.024;8.172;2023-02-01T16:40:34;7.00;;;1.63;;
15814;SDS011;8008;50.024;8.172;2023-02-01T16:43:07;8.67;;;1.83;;
15814;SDS011;8008;50.024;8.172;2023-02-01T16:45:38;8.97;;;1.90;;
15814;SDS011;8008;50.024;8.172;2023-02-01T16:48:06;3.23;;;1.50;;
15814;SDS011;8008;50.024;8.172;2023-02-01T16:50:34;7.33;;;1.90;;
15814;SDS011;8008;50.024;8.172;2023-02-01T16:53:03;8.70;;;2.10;;
15814;SDS011;8008;50.024;8.172;2023-02-01T16:55:32;10.10;;;2.17;;
15814;SDS011;8008;50.024;8.172;2023-02-01T16:58:01;9.73;;;1.70;;
15814;SDS011;8008;50.024;8.172;2023-02-01T17:00:29;9.43;;;2.03;;
15814;SDS011;8008;50.024;8.172;2023-02-01T17:02:59;7.23;;;1.80;;
15814;SDS011;8008;50.024;8.172;2023-02-01T17:05:27;8.40;;;1.80;;
15814;SDS011;8008;50.024;8.172;2023-02-01T17:07:55;6.63;;;1.70;;
15814;SDS011;8008;50.024;8.172;2023-02-01T17:10:30;9.30;;;2.00;;
15814;SDS011;8008;50.024;8.172;2023-02-01T17:13:00;8.87;;;2.20;;
15814;SDS011;8008;50.024;8.172;2023-02-01T17:15:29;6.07;;;2.10;;
15814;SDS011;8008;50.024;8.172;2023-02-01T17:18:02;6.80;;;2.37;;
15814;SDS011;8008;50.024;8.172;2023-02-01T17:20:30;9.87;;;3.23;;
15814;SDS011;8008;50.024;8.172;2023-02-01T17:23:00;9.70;;;2.97;;
15814;SDS011;8008;50.024;8.172;2023-02-01T17:25:28;8.83;;;2.23;;
15814;SDS011;8008;50.024;8.172;2023-02-01T17:27:58;8.33;;;2.60;;
15814;SDS011;8008;50.024;8.172;2023-02-01T17:30:26;10.97;;;3.00;;
15814;SDS011;8008;50.024;8.172;2023-02-01T17:32:54;10.17;;;3.33;;
15814;SDS011;8008;50.024;8.172;2023-02-01T17:35:23;9.57;;;2.77;;
15814;SDS011;8008;50.024;8.172;2023-02-01T17:37:53;10.43;;;3.10;;
15814;SDS011;8008;50.024;8.172;2023-02-01T17:40:21;8.47;;;2.77;;
15814;SDS011;8008;50.024;8.172;2023-02-01T17:42:51;10.00;;;2.23;;
15814;SDS011;8008;50.024;8.172;2023-02-01T17:48:08;6.87;;;1.90;;
15814;SDS011;8008;50.024;8.172;2023-02-01T17:50:36;8.53;;;2.17;;
15814;SDS011;8008;50.024;8.172;2023-02-01T17:53:05;6.67;;;1.93;;
15814;SDS011;8008;50.024;8.172;2023-02-01T17:55:35;12.10;;;2.70;;
15814;SDS011;8008;50.024;8.172;2023-02-01T17:58:06;5.73;;;1.57;;
15814;SDS011;8008;50.024;8.172;2023-02-01T18:00:35;9.83;;;2.13;;
15814;SDS011;8008;50.024;8.172;2023-02-01T18:03:04;6.40;;;1.80;;
15814;SDS011;8008;50.024;8.172;2023-02-01T18:05:35;7.27;;;2.00;;
15814;SDS011;8008;50.024;8.172;2023-02-01T18:08:06;7.37;;;2.10;;
15814;SDS011;8008;50.024;8.172;2023-02-01T18:10:34;8.40;;;1.80;;
15814;SDS011;8008;50.024;8.172;2023-02-01T18:13:04;5.10;;;2.13;;
15814;SDS011;8008;50.024;8.172;2023-02-01T18:15:33;8.60;;;2.40;;
15814;SDS011;8008;50.024;8.172;2023-02-01T18:18:01;8.40;;;2.10;;
15814;SDS011;8008;50.024;8.172;2023-02-01T18:20:29;10.13;;;2.73;;
15814;SDS011;8008;50.024;8.172;2023-02-01T18:23:00;11.33;;;1.90;;
15814;SDS011;8008;50.024;8.172;2023-02-01T18:25:29;9.93;;;2.10;;
15814;SDS011;8008;50.024;8.172;2023-02-01T18:28:02;9.20;;;1.90;;
15814;SDS011;8008;50.024;8.172;2023-02-01T18:30:32;6.90;;;2.07;;
15814;SDS011;8008;50.024;8.172;2023-02-01T18:33:01;8.20;;;2.57;;
15814;SDS011;8008;50.024;8.172;2023-02-01T18:35:30;6.57;;;2.10;;
15814;SDS011;8008;50.024;8.172;2023-02-01T18:37:58;6.00;;;1.87;;
15814;SDS011;8008;50.024;8.172;2023-02-01T18:40:28;8.10;;;2.00;;
15814;SDS011;8008;50.024;8.172;2023-02-01T18:42:59;6.20;;;2.00;;
15814;SDS011;8008;50.024;8.172;2023-02-01T18:45:28;8.27;;;1.73;;
15814;SDS011;8008;50.024;8.172;2023-02-01T18:47:59;9.27;;;1.80;;
15814;SDS011;8008;50.024;8.172;2023-02-01T18:50:28;7.70;;;2.00;;
15814;SDS011;8008;50.024;8.172;2023-02-01T18:52:58;7.07;;;1.77;;
15814;SDS011;8008;50.024;8.172;2023-02-01T18:55:27;6.13;;;1.63;;
15814;SDS011;8008;50.024;8.172;2023-02-01T18:57:57;8.40;;;2.07;;
15814;SDS011;8008;50.024;8.172;2023-02-01T19:00:26;9.77;;;1.83;;
15814;SDS011;8008;50.024;8.172;2023-02-01T19:02:55;7.80;;;2.17;;
15814;SDS011;8008;50.024;8.172;2023-02-01T19:05:24;11.17;;;2.70;;
15814;SDS011;8008;50.024;8.172;2023-02-01T19:07:52;10.47;;;3.07;;
15814;SDS011;8008;50.024;8.172;2023-02-01T19:10:21;8.57;;;1.97;;
15814;SDS011;8008;50.024;8.172;2023-02-01T19:12:50;13.60;;;2.50;;
15814;SDS011;8008;50.024;8.172;2023-02-01T19:15:20;11.83;;;2.33;;
15814;SDS011;8008;50.024;8.172;2023-02-01T19:17:49;6.23;;;1.90;;
15814;SDS011;8008;50.024;8.172;2023-02-01T19:20:20;8.30;;;2.40;;
15814;SDS011;8008;50.024;8.172;2023-02-01T19:22:50;9.23;;;2.03;;
15814;SDS011;8008;50.024;8.172;2023-02-01T19:25:19;9.30;;;1.97;;
15814;SDS011;8008;50.024;8.172;2023-02-01T19:27:50;8.97;;;2.37;;
15814;SDS011;8008;50.024;8.172;2023-02-01T19:30:19;10.53;;;2.43;;
15814;SDS011;8008;50.024;8.172;2023-02-01T19:32:48;6.13;;;2.60;;
15814;SDS011;8008;50.024;8.172;2023-02-01T19:35:19;9.10;;;2.20;;
15814;SDS011;8008;50.024;8.172;2023-02-01T19:37:49;6.27;;;1.93;;
15814;SDS011;8008;50.024;8.172;2023-02-01T19:40:18;12.30;;;2.87;;
15814;SDS011;8008;50.024;8.172;2023-02-01T19:42:47;7.23;;;2.47;;
15814;SDS011;8008;50.024;8.172;2023-02-01T19:45:16;7.60;;;2.33;;
15814;SDS011;8008;50.024;8.172;2023-02-01T19:47:44;7.30;;;2.00;;
15814;SDS011;8008;50.024;8.172;2023-02-01T19:50:14;7.53;;;2.13;;
15814;SDS011;8008;50.024;8.172;2023-02-01T19:52:45;7.63;;;3.10;;